»·PEaware :: N415BJ KFHR-KORS

N415BJ :: KFHR-KORS

FLIGHT INFORMATION

Flight Status: Arrived
Operator: Privately registered:
United States
More flights under this callsign
Pilot: Daniel G. (31975)
Aircraft: CIRRUS SR-22 TURBO
(S22T)
More flights by this aircraft type
Origin: KFHR Friday Harbor
United States
Destination: KORS Orcas Island
United States
More flights between these airports :: More routes between these airports
Route: FHR CANDL
File this flight plan on PilotEdge
Remarks:
Altitude:
(Current/Filed)
3,000ft
Speed:
(Current/Filed)
170kts
Departed: 14-Nov-20 09:38 PM
Arrived: 14-Nov-20 10:03 PM
Distance/Time
Traveled:
12nm/0:24
Distance/Time
To Go:
Arrived

Flight Plot

Page will automatically refresh every two minutes.

Flight plan parsing failed; only flown route is shown


Map Options




Map Legend


Flown Route
Filed Route
Departure Airport
Arrival Airport
Navaid (VOR, NDB)
Fix

Horizontal Profiles

Position Reports

Time Latitude Longitude Heading Altitude Ground
Speed
14-Nov-20 21:18 48.527353 -123.026089 0 122ft 0kts
14-Nov-20 21:19 48.527353 -123.026089 179 122ft 0kts
14-Nov-20 21:20 48.527353 -123.026089 179 122ft 0kts
14-Nov-20 21:21 48.527353 -123.026089 179 122ft 0kts
14-Nov-20 21:22 48.527353 -123.026089 179 122ft 0kts
14-Nov-20 21:23 48.527353 -123.026089 179 122ft 0kts
14-Nov-20 21:24 48.527353 -123.026089 179 122ft 0kts
14-Nov-20 21:25 48.527353 -123.026089 179 122ft 0kts
14-Nov-20 21:26 48.527353 -123.026089 179 122ft 0kts
14-Nov-20 21:27 48.527353 -123.026089 179 122ft 0kts
14-Nov-20 21:28 48.527353 -123.026089 179 122ft 0kts
14-Nov-20 21:29 48.527353 -123.026089 179 122ft 0kts
14-Nov-20 21:30 48.526611 -123.025403 17 116ft 6kts
14-Nov-20 21:31 48.526640 -123.025361 155 116ft 0kts
14-Nov-20 21:32 48.526640 -123.025361 155 116ft 0kts
14-Nov-20 21:33 48.526640 -123.025361 155 116ft 0kts
14-Nov-20 21:34 48.526640 -123.025361 155 116ft 0kts
14-Nov-20 21:35 48.526577 -123.025280 92 115ft 0kts
14-Nov-20 21:36 48.526434 -123.024732 169 113ft 0kts
14-Nov-20 21:37 48.506288 -123.025268 178 1001ft 116kts
14-Nov-20 21:38 48.499767 -123.002555 38 3052ft 139kts
14-Nov-20 21:39 48.538443 -122.970187 56 3021ft 162kts
14-Nov-20 21:40 48.566640 -122.917424 60 3020ft 162kts
14-Nov-20 21:41 48.594406 -122.863142 59 3007ft 162kts
14-Nov-20 21:42 48.621496 -122.809774 57 3025ft 156kts
14-Nov-20 21:43 48.647856 -122.758004 56 3029ft 152kts
14-Nov-20 21:44 48.673516 -122.707422 54 3044ft 149kts
14-Nov-20 21:45 48.699042 -122.656989 47 3058ft 155kts
14-Nov-20 21:46 48.731021 -122.625214 324 3009ft 152kts
14-Nov-20 21:48 48.766885 -122.662607 338 2565ft 160kts
14-Nov-20 21:49 48.807301 -122.685314 343 2544ft 154kts
14-Nov-20 21:50 48.849571 -122.710991 341 2121ft 170kts
14-Nov-20 21:51 48.892171 -122.737213 341 2034ft 160kts
14-Nov-20 21:52 48.931354 -122.756927 348 2024ft 137kts
14-Nov-20 21:53 48.954284 -122.743563 111 2063ft 97kts
14-Nov-20 21:54 48.927325 -122.742210 173 2037ft 108kts
14-Nov-20 21:55 48.898310 -122.753684 215 2033ft 116kts
14-Nov-20 21:56 48.871473 -122.780838 204 2029ft 113kts
14-Nov-20 21:57 48.843728 -122.805394 205 1914ft 116kts
14-Nov-20 21:58 48.816786 -122.829266 203 1912ft 110kts
14-Nov-20 21:59 48.790184 -122.852692 203 1911ft 110kts
14-Nov-20 22:00 48.765865 -122.874176 207 1347ft 98kts
14-Nov-20 22:01 48.740710 -122.896465 203 721ft 106kts
14-Nov-20 22:02 48.717091 -122.910827 178 173ft 76kts
14-Nov-20 22:03 48.704440 -122.910136 83 37ft 8kts
14-Nov-20 22:04 48.704459 -122.909968 78 37ft 3kts
14-Nov-20 22:05 48.704453 -122.909671 262 37ft 0kts
14-Nov-20 22:05 48.704453 -122.909671 262 37ft 0kts
14-Nov-20 22:07 48.704453 -122.909671 262 37ft 0kts
14-Nov-20 22:07 48.704453 -122.909671 262 37ft 0kts
14-Nov-20 22:09 48.704453 -122.909671 262 37ft 0kts
14-Nov-20 22:09 48.704453 -122.909671 262 37ft 0kts
14-Nov-20 22:11 48.704453 -122.909671 262 37ft 0kts
14-Nov-20 22:11 48.704453 -122.909671 262 37ft 0kts
14-Nov-20 22:12 48.704453 -122.909671 262 37ft 0kts
14-Nov-20 22:13 48.704453 -122.909671 262 37ft 0kts
14-Nov-20 22:15 48.704453 -122.909671 262 37ft 0kts
14-Nov-20 22:15 48.704453 -122.909671 262 37ft 0kts
14-Nov-20 22:16 48.704453 -122.909671 262 37ft 0kts

Navigation Log

Ident Type
Flight plan parsing failed, navigation log unavailable